»·PEaware :: AAL427 KSNA-KPHX

AAL427 :: KSNA-KPHX

FLIGHT INFORMATION

Flight Status: Arrived
Operator:
American Airlines
More flights by this operator :: More flights under this callsign
Pilot: Chris S. (2433)
Aircraft: AIRBUS A320
(A320)
More flights by this aircraft type
Origin: KSNA John Wayne-Orange Co
United States
Destination: KPHX Phoenix Sky Harbor Intl
United States
More flights between these airports :: More routes between these airports
Route: PIGGN2 CNERY BLH HYDRR1
File this flight plan on PilotEdge
Remarks:
Altitude:
(Current/Filed)
33,000ft
Speed:
(Current/Filed)
450kts
Departed: 22-Apr-18 01:19 PM
Arrived: 22-Apr-18 02:07 PM
Distance/Time
Traveled:
294nm/0:48
Distance/Time
To Go:
Arrived

Flight Plot

Page will automatically refresh every two minutes.

Flight plan parsing failed; only flown route is shown


Map Options




Map Legend


Flown Route
Filed Route
Departure Airport
Arrival Airport
Navaid (VOR, NDB)
Fix

Horizontal Profiles

Position Reports

Time Latitude Longitude Heading Altitude Ground
Speed
22-Apr-18 12:40 33.676740 -117.863986 117 65ft 0kts
22-Apr-18 12:41 33.676740 -117.863986 117 65ft 0kts
22-Apr-18 12:42 33.676740 -117.863986 117 65ft 0kts
22-Apr-18 12:43 33.676740 -117.863986 117 65ft 0kts
22-Apr-18 12:44 33.676740 -117.863986 117 65ft 0kts
22-Apr-18 12:45 33.676740 -117.863986 117 65ft 0kts
22-Apr-18 12:46 33.676740 -117.863986 117 65ft 0kts
22-Apr-18 12:47 33.676740 -117.863986 117 65ft 0kts
22-Apr-18 12:48 33.676740 -117.863987 117 65ft 0kts
22-Apr-18 12:49 33.676740 -117.863987 117 65ft 0kts
22-Apr-18 12:50 33.676740 -117.863987 117 65ft 0kts
22-Apr-18 12:51 33.676740 -117.863987 117 65ft 0kts
22-Apr-18 12:52 33.676740 -117.863987 117 65ft 0kts
22-Apr-18 12:53 33.676740 -117.863987 117 65ft 0kts
22-Apr-18 12:54 33.676740 -117.863987 117 65ft 0kts
22-Apr-18 12:55 33.676740 -117.863987 117 65ft 0kts
22-Apr-18 12:56 33.676740 -117.863987 117 65ft 0kts
22-Apr-18 12:57 33.676740 -117.863987 117 65ft 0kts
22-Apr-18 12:58 33.676740 -117.863987 117 65ft 0kts
22-Apr-18 12:59 33.676740 -117.863987 117 65ft 0kts
22-Apr-18 13:00 33.676740 -117.863987 117 65ft 0kts
22-Apr-18 13:01 33.676740 -117.863987 117 65ft 0kts
22-Apr-18 13:02 33.676740 -117.863987 117 65ft 0kts
22-Apr-18 13:03 33.676740 -117.863987 117 65ft 0kts
22-Apr-18 13:04 33.676740 -117.863987 117 65ft 0kts
22-Apr-18 13:05 33.676740 -117.863987 117 65ft 0kts
22-Apr-18 13:06 33.676740 -117.863987 117 65ft 0kts
22-Apr-18 13:07 33.676828 -117.864587 67 65ft 2kts
22-Apr-18 13:08 33.676588 -117.864885 26 65ft 0kts
22-Apr-18 13:09 33.676588 -117.864885 26 65ft 0kts
22-Apr-18 13:10 33.676588 -117.864885 26 65ft 0kts
22-Apr-18 13:11 33.676588 -117.864885 26 65ft 0kts
22-Apr-18 13:12 33.678736 -117.863521 28 65ft 16kts
22-Apr-18 13:13 33.680628 -117.863055 297 65ft 0kts
22-Apr-18 13:14 33.680628 -117.863055 297 65ft 0kts
22-Apr-18 13:15 33.680628 -117.863055 297 65ft 0kts
22-Apr-18 13:16 33.680628 -117.863055 297 65ft 0kts
22-Apr-18 13:17 33.681021 -117.865450 209 65ft 16kts
22-Apr-18 13:18 33.645587 -117.888522 203 2381ft 208kts
22-Apr-18 13:19 33.579189 -117.900275 180 4915ft 263kts
22-Apr-18 13:20 33.510637 -117.864901 143 6938ft 275kts
22-Apr-18 13:21 33.475620 -117.786516 110 6994ft 273kts
22-Apr-18 13:22 33.480828 -117.695227 72 8090ft 284kts
22-Apr-18 13:23 33.520800 -117.611735 56 11146ft 299kts
22-Apr-18 13:24 33.565136 -117.522430 59 14259ft 348kts
22-Apr-18 13:25 33.563293 -117.403533 111 16384ft 397kts
22-Apr-18 13:26 33.521089 -117.283583 108 19712ft 396kts
22-Apr-18 13:27 33.497443 -117.155019 86 22327ft 407kts
22-Apr-18 13:28 33.500135 -117.015118 88 23902ft 437kts
22-Apr-18 13:29 33.497193 -116.873436 88 25784ft 445kts
22-Apr-18 13:30 33.496032 -116.722749 87 27364ft 458kts
22-Apr-18 13:31 33.494676 -116.569402 88 28888ft 466kts
22-Apr-18 13:32 33.492213 -116.414999 87 30858ft 462kts
22-Apr-18 13:33 33.490149 -116.261647 88 32532ft 463kts
22-Apr-18 13:34 33.487687 -116.108171 88 32956ft 461kts
22-Apr-18 13:35 33.508481 -115.958673 67 32952ft 457kts
22-Apr-18 13:36 33.550445 -115.815364 67 32957ft 457kts
22-Apr-18 13:37 33.592254 -115.671592 67 32891ft 460kts
22-Apr-18 13:38 33.610084 -115.519458 95 32915ft 477kts
22-Apr-18 13:39 33.590008 -115.361975 96 32993ft 477kts
22-Apr-18 13:40 33.570018 -115.206192 96 33010ft 476kts
22-Apr-18 13:41 33.549727 -115.049933 96 32999ft 474kts
22-Apr-18 13:42 33.529345 -114.894572 97 32992ft 471kts
22-Apr-18 13:43 33.508830 -114.739775 97 32781ft 467kts
22-Apr-18 13:44 33.488167 -114.585405 96 30439ft 476kts
22-Apr-18 13:45 33.467216 -114.430301 96 29231ft 473kts
22-Apr-18 13:46 33.446247 -114.275919 96 28285ft 474kts
22-Apr-18 13:47 33.455926 -114.121701 76 25376ft 475kts
22-Apr-18 13:48 33.439613 -113.964950 101 23968ft 484kts
22-Apr-18 13:49 33.408874 -113.810118 101 22774ft 476kts
22-Apr-18 13:50 33.377825 -113.656179 101 21970ft 474kts
22-Apr-18 13:51 33.346475 -113.503154 101 21970ft 472kts
22-Apr-18 13:52 33.318656 -113.350172 99 21969ft 472kts
22-Apr-18 13:53 33.293389 -113.199363 97 21524ft 447kts
22-Apr-18 13:54 33.275112 -113.055504 90 18448ft 431kts
22-Apr-18 13:55 33.278163 -112.916093 88 15568ft 410kts
22-Apr-18 13:56 33.291712 -112.785084 68 14008ft 406kts
22-Apr-18 13:57 33.341024 -112.659643 64 12480ft 411kts
22-Apr-18 13:58 33.387590 -112.540055 65 10169ft 385kts
22-Apr-18 13:59 33.424328 -112.434662 80 9761ft 307kts
22-Apr-18 14:00 33.429537 -112.341536 83 7602ft 264kts
22-Apr-18 14:01 33.428987 -112.258543 93 5454ft 241kts
22-Apr-18 14:02 33.429526 -112.181655 91 3574ft 217kts
22-Apr-18 14:03 33.428239 -112.122556 89 3092ft 144kts
22-Apr-18 14:04 33.428655 -112.076252 88 2091ft 136kts
22-Apr-18 14:05 33.428775 -112.030131 88 1216ft 137kts
22-Apr-18 14:06 33.429389 -112.010783 47 1124ft 11kts
22-Apr-18 14:07 33.430964 -112.008952 0 1127ft 14kts
22-Apr-18 14:08 33.431944 -112.008570 53 1128ft 0kts
22-Apr-18 14:09 33.431988 -112.008492 56 1128ft 5kts
22-Apr-18 14:10 33.432867 -112.004875 93 1128ft 18kts
22-Apr-18 14:11 33.432865 -111.998669 81 1126ft 9kts
22-Apr-18 14:12 33.434071 -111.998764 293 1126ft 0kts
22-Apr-18 14:13 33.434071 -111.998764 293 1126ft 0kts

Navigation Log

Ident Type
Flight plan parsing failed, navigation log unavailable